sensor_id;sensor_type;location;lat;lon;timestamp;P1;durP1;ratioP1;P2;durP2;ratioP2
9771;SDS011;4925;52.588;13.370;2022-10-26T00:00:45;8.83;;;5.93;;
9771;SDS011;4925;52.588;13.370;2022-10-26T00:03:11;9.53;;;5.83;;
9771;SDS011;4925;52.588;13.370;2022-10-26T00:05:37;8.40;;;6.17;;
9771;SDS011;4925;52.588;13.370;2022-10-26T00:08:03;5.20;;;4.70;;
9771;SDS011;4925;52.588;13.370;2022-10-26T00:10:29;7.43;;;5.50;;
9771;SDS011;4925;52.588;13.370;2022-10-26T00:12:57;9.17;;;5.90;;
9771;SDS011;4925;52.588;13.370;2022-10-26T00:15:23;8.23;;;5.10;;
9771;SDS011;4925;52.588;13.370;2022-10-26T00:17:51;8.60;;;5.17;;
9771;SDS011;4925;52.588;13.370;2022-10-26T00:20:16;8.47;;;5.47;;
9771;SDS011;4925;52.588;13.370;2022-10-26T00:22:42;9.00;;;6.03;;
9771;SDS011;4925;52.588;13.370;2022-10-26T00:25:08;7.93;;;5.07;;
9771;SDS011;4925;52.588;13.370;2022-10-26T00:27:33;9.90;;;5.63;;
9771;SDS011;4925;52.588;13.370;2022-10-26T00:29:59;9.50;;;5.37;;
9771;SDS011;4925;52.588;13.370;2022-10-26T00:32:26;8.83;;;5.23;;
9771;SDS011;4925;52.588;13.370;2022-10-26T00:34:52;5.77;;;5.07;;
9771;SDS011;4925;52.588;13.370;2022-10-26T00:37:17;6.23;;;5.10;;
9771;SDS011;4925;52.588;13.370;2022-10-26T00:39:43;9.27;;;5.93;;
9771;SDS011;4925;52.588;13.370;2022-10-26T00:42:12;8.17;;;5.60;;
9771;SDS011;4925;52.588;13.370;2022-10-26T00:47:33;9.77;;;5.53;;
9771;SDS011;4925;52.588;13.370;2022-10-26T00:50:01;6.67;;;5.10;;
9771;SDS011;4925;52.588;13.370;2022-10-26T00:52:31;9.80;;;6.40;;
9771;SDS011;4925;52.588;13.370;2022-10-26T00:54:57;10.47;;;5.03;;
9771;SDS011;4925;52.588;13.370;2022-10-26T00:57:22;8.73;;;5.20;;
9771;SDS011;4925;52.588;13.370;2022-10-26T00:59:48;8.03;;;5.07;;
9771;SDS011;4925;52.588;13.370;2022-10-26T01:02:18;6.10;;;5.10;;
9771;SDS011;4925;52.588;13.370;2022-10-26T01:04:44;7.83;;;5.80;;
9771;SDS011;4925;52.588;13.370;2022-10-26T01:07:11;9.03;;;5.53;;
9771;SDS011;4925;52.588;13.370;2022-10-26T01:09:37;11.17;;;5.87;;
9771;SDS011;4925;52.588;13.370;2022-10-26T01:12:03;6.63;;;5.07;;
9771;SDS011;4925;52.588;13.370;2022-10-26T01:14:29;8.03;;;5.43;;
9771;SDS011;4925;52.588;13.370;2022-10-26T01:17:02;6.37;;;5.50;;
9771;SDS011;4925;52.588;13.370;2022-10-26T01:27:44;7.57;;;5.40;;
9771;SDS011;4925;52.588;13.370;2022-10-26T01:41:20;12.67;;;5.13;;
9771;SDS011;4925;52.588;13.370;2022-10-26T01:43:55;7.53;;;5.23;;
9771;SDS011;4925;52.588;13.370;2022-10-26T01:46:25;7.80;;;5.33;;
9771;SDS011;4925;52.588;13.370;2022-10-26T01:48:54;8.57;;;5.53;;
9771;SDS011;4925;52.588;13.370;2022-10-26T01:51:25;8.17;;;5.80;;
9771;SDS011;4925;52.588;13.370;2022-10-26T01:53:52;9.37;;;5.87;;
9771;SDS011;4925;52.588;13.370;2022-10-26T01:56:19;6.23;;;5.30;;
9771;SDS011;4925;52.588;13.370;2022-10-26T01:58:51;7.27;;;5.17;;
9771;SDS011;4925;52.588;13.370;2022-10-26T02:04:42;6.57;;;5.60;;
9771;SDS011;4925;52.588;13.370;2022-10-26T02:12:19;9.60;;;5.80;;
9771;SDS011;4925;52.588;13.370;2022-10-26T02:14:50;9.13;;;5.60;;
9771;SDS011;4925;52.588;13.370;2022-10-26T02:17:34;11.00;;;5.77;;
9771;SDS011;4925;52.588;13.370;2022-10-26T02:20:11;10.27;;;6.23;;
9771;SDS011;4925;52.588;13.370;2022-10-26T02:22:44;7.73;;;5.23;;
9771;SDS011;4925;52.588;13.370;2022-10-26T02:25:15;8.80;;;5.60;;
9771;SDS011;4925;52.588;13.370;2022-10-26T02:27:48;8.33;;;5.70;;
9771;SDS011;4925;52.588;13.370;2022-10-26T02:30:17;8.90;;;5.67;;
9771;SDS011;4925;52.588;13.370;2022-10-26T02:32:44;7.87;;;5.33;;
9771;SDS011;4925;52.588;13.370;2022-10-26T02:35:14;11.97;;;5.80;;
9771;SDS011;4925;52.588;13.370;2022-10-26T02:37:41;8.97;;;5.83;;
9771;SDS011;4925;52.588;13.370;2022-10-26T02:40:10;10.13;;;6.10;;
9771;SDS011;4925;52.588;13.370;2022-10-26T02:42:44;8.37;;;5.80;;
9771;SDS011;4925;52.588;13.370;2022-10-26T02:45:12;7.63;;;5.70;;
9771;SDS011;4925;52.588;13.370;2022-10-26T02:47:43;8.57;;;5.27;;
9771;SDS011;4925;52.588;13.370;2022-10-26T02:50:09;8.37;;;6.27;;
9771;SDS011;4925;52.588;13.370;2022-10-26T02:55:19;8.80;;;6.00;;
9771;SDS011;4925;52.588;13.370;2022-10-26T02:57:57;7.27;;;5.63;;
9771;SDS011;4925;52.588;13.370;2022-10-26T03:00:24;11.87;;;4.97;;
9771;SDS011;4925;52.588;13.370;2022-10-26T03:02:51;7.13;;;5.60;;
9771;SDS011;4925;52.588;13.370;2022-10-26T03:05:28;11.13;;;6.37;;
9771;SDS011;4925;52.588;13.370;2022-10-26T03:07:56;7.93;;;6.10;;
9771;SDS011;4925;52.588;13.370;2022-10-26T03:10:22;12.57;;;5.57;;
9771;SDS011;4925;52.588;13.370;2022-10-26T03:12:48;8.53;;;5.57;;
9771;SDS011;4925;52.588;13.370;2022-10-26T03:15:14;8.17;;;6.27;;
9771;SDS011;4925;52.588;13.370;2022-10-26T03:17:40;7.30;;;5.93;;
9771;SDS011;4925;52.588;13.370;2022-10-26T03:20:06;8.77;;;5.83;;
9771;SDS011;4925;52.588;13.370;2022-10-26T03:22:32;7.67;;;5.73;;
9771;SDS011;4925;52.588;13.370;2022-10-26T03:24:57;7.90;;;5.77;;
9771;SDS011;4925;52.588;13.370;2022-10-26T03:27:23;8.93;;;5.90;;
9771;SDS011;4925;52.588;13.370;2022-10-26T03:29:48;8.37;;;5.30;;
9771;SDS011;4925;52.588;13.370;2022-10-26T03:32:14;9.90;;;5.50;;
9771;SDS011;4925;52.588;13.370;2022-10-26T03:34:40;7.87;;;6.13;;
9771;SDS011;4925;52.588;13.370;2022-10-26T03:37:05;6.80;;;5.07;;
9771;SDS011;4925;52.588;13.370;2022-10-26T03:39:31;13.20;;;7.57;;
9771;SDS011;4925;52.588;13.370;2022-10-26T03:41:56;9.13;;;6.53;;
9771;SDS011;4925;52.588;13.370;2022-10-26T03:44:22;10.50;;;5.97;;
9771;SDS011;4925;52.588;13.370;2022-10-26T03:46:47;9.40;;;6.50;;
9771;SDS011;4925;52.588;13.370;2022-10-26T03:49:13;11.37;;;6.70;;
9771;SDS011;4925;52.588;13.370;2022-10-26T03:51:38;7.50;;;6.20;;
9771;SDS011;4925;52.588;13.370;2022-10-26T03:54:04;10.40;;;6.17;;
9771;SDS011;4925;52.588;13.370;2022-10-26T03:56:30;9.87;;;6.33;;
9771;SDS011;4925;52.588;13.370;2022-10-26T03:58:55;12.30;;;6.93;;
9771;SDS011;4925;52.588;13.370;2022-10-26T04:01:21;9.17;;;6.50;;
9771;SDS011;4925;52.588;13.370;2022-10-26T04:03:47;8.57;;;6.40;;
9771;SDS011;4925;52.588;13.370;2022-10-26T04:06:12;11.77;;;6.77;;
9771;SDS011;4925;52.588;13.370;2022-10-26T04:08:38;11.23;;;6.77;;
9771;SDS011;4925;52.588;13.370;2022-10-26T04:11:06;8.90;;;6.63;;
9771;SDS011;4925;52.588;13.370;2022-10-26T04:13:32;8.03;;;6.33;;
9771;SDS011;4925;52.588;13.370;2022-10-26T04:15:58;10.10;;;6.50;;
9771;SDS011;4925;52.588;13.370;2022-10-26T04:18:24;9.90;;;5.27;;
9771;SDS011;4925;52.588;13.370;2022-10-26T04:20:49;9.30;;;6.40;;
9771;SDS011;4925;52.588;13.370;2022-10-26T04:23:15;11.57;;;6.63;;
9771;SDS011;4925;52.588;13.370;2022-10-26T04:25:42;9.87;;;6.27;;
9771;SDS011;4925;52.588;13.370;2022-10-26T04:28:09;7.93;;;6.50;;
9771;SDS011;4925;52.588;13.370;2022-10-26T04:30:36;6.97;;;5.60;;
9771;SDS011;4925;52.588;13.370;2022-10-26T04:33:03;9.53;;;6.30;;
9771;SDS011;4925;52.588;13.370;2022-10-26T04:35:29;10.23;;;6.57;;
9771;SDS011;4925;52.588;13.370;2022-10-26T04:37:59;10.13;;;5.97;;
9771;SDS011;4925;52.588;13.370;2022-10-26T04:40:29;10.23;;;6.13;;
9771;SDS011;4925;52.588;13.370;2022-10-26T04:42:56;9.57;;;6.47;;
9771;SDS011;4925;52.588;13.370;2022-10-26T04:45:21;16.97;;;9.33;;
9771;SDS011;4925;52.588;13.370;2022-10-26T04:47:47;14.13;;;9.13;;
9771;SDS011;4925;52.588;13.370;2022-10-26T04:50:22;16.30;;;8.77;;
9771;SDS011;4925;52.588;13.370;2022-10-26T04:52:49;15.50;;;7.97;;
9771;SDS011;4925;52.588;13.370;2022-10-26T04:55:15;15.10;;;8.93;;
9771;SDS011;4925;52.588;13.370;2022-10-26T04:57:42;11.97;;;6.83;;
9771;SDS011;4925;52.588;13.370;2022-10-26T05:00:09;10.20;;;7.13;;
9771;SDS011;4925;52.588;13.370;2022-10-26T05:02:35;9.87;;;6.30;;
9771;SDS011;4925;52.588;13.370;2022-10-26T05:05:00;9.97;;;6.93;;
9771;SDS011;4925;52.588;13.370;2022-10-26T05:07:26;11.07;;;6.73;;
9771;SDS011;4925;52.588;13.370;2022-10-26T05:09:51;9.43;;;6.93;;
9771;SDS011;4925;52.588;13.370;2022-10-26T05:12:17;12.07;;;6.13;;
9771;SDS011;4925;52.588;13.370;2022-10-26T05:14:43;8.87;;;6.57;;
9771;SDS011;4925;52.588;13.370;2022-10-26T05:17:08;9.03;;;5.90;;
9771;SDS011;4925;52.588;13.370;2022-10-26T05:19:34;9.40;;;6.33;;
9771;SDS011;4925;52.588;13.370;2022-10-26T05:21:59;13.17;;;6.93;;
9771;SDS011;4925;52.588;13.370;2022-10-26T05:24:25;13.77;;;7.00;;
9771;SDS011;4925;52.588;13.370;2022-10-26T05:26:50;10.90;;;6.67;;
9771;SDS011;4925;52.588;13.370;2022-10-26T05:29:16;10.53;;;6.63;;
9771;SDS011;4925;52.588;13.370;2022-10-26T05:31:42;10.03;;;7.23;;
9771;SDS011;4925;52.588;13.370;2022-10-26T05:34:07;11.80;;;7.70;;
9771;SDS011;4925;52.588;13.370;2022-10-26T05:36:33;10.27;;;6.70;;
9771;SDS011;4925;52.588;13.370;2022-10-26T05:38:58;11.90;;;7.20;;
9771;SDS011;4925;52.588;13.370;2022-10-26T05:41:24;11.63;;;6.50;;
9771;SDS011;4925;52.588;13.370;2022-10-26T05:43:50;12.40;;;7.03;;
9771;SDS011;4925;52.588;13.370;2022-10-26T05:46:15;15.03;;;7.70;;
9771;SDS011;4925;52.588;13.370;2022-10-26T05:48:41;19.93;;;7.57;;
9771;SDS011;4925;52.588;13.370;2022-10-26T05:51:06;15.00;;;7.47;;
9771;SDS011;4925;52.588;13.370;2022-10-26T05:53:32;11.83;;;6.67;;
9771;SDS011;4925;52.588;13.370;2022-10-26T05:55:58;8.43;;;6.07;;
9771;SDS011;4925;52.588;13.370;2022-10-26T05:58:24;8.23;;;6.33;;
9771;SDS011;4925;52.588;13.370;2022-10-26T06:04:13;12.27;;;6.63;;
9771;SDS011;4925;52.588;13.370;2022-10-26T06:06:43;10.37;;;6.77;;
9771;SDS011;4925;52.588;13.370;2022-10-26T06:09:11;12.93;;;7.10;;
9771;SDS011;4925;52.588;13.370;2022-10-26T06:11:38;10.90;;;7.17;;
9771;SDS011;4925;52.588;13.370;2022-10-26T06:14:04;17.30;;;7.90;;
9771;SDS011;4925;52.588;13.370;2022-10-26T06:16:34;14.23;;;6.80;;
9771;SDS011;4925;52.588;13.370;2022-10-26T06:19:40;13.10;;;7.17;;
9771;SDS011;4925;52.588;13.370;2022-10-26T06:22:25;12.77;;;7.07;;
9771;SDS011;4925;52.588;13.370;2022-10-26T06:27:42;12.33;;;7.17;;
9771;SDS011;4925;52.588;13.370;2022-10-26T06:30:12;19.43;;;7.67;;
9771;SDS011;4925;52.588;13.370;2022-10-26T06:32:38;16.20;;;8.27;;
9771;SDS011;4925;52.588;13.370;2022-10-26T06:37:48;9.70;;;7.60;;
9771;SDS011;4925;52.588;13.370;2022-10-26T06:40:15;10.07;;;7.23;;
9771;SDS011;4925;52.588;13.370;2022-10-26T06:42:42;12.70;;;7.43;;
9771;SDS011;4925;52.588;13.370;2022-10-26T06:45:15;12.27;;;7.60;;
9771;SDS011;4925;52.588;13.370;2022-10-26T06:55:46;15.07;;;8.37;;
9771;SDS011;4925;52.588;13.370;2022-10-26T06:58:18;14.83;;;8.00;;
9771;SDS011;4925;52.588;13.370;2022-10-26T07:00:46;18.00;;;9.03;;
9771;SDS011;4925;52.588;13.370;2022-10-26T07:03:14;14.67;;;9.00;;
9771;SDS011;4925;52.588;13.370;2022-10-26T07:05:40;10.40;;;7.50;;
9771;SDS011;4925;52.588;13.370;2022-10-26T07:08:07;17.77;;;7.17;;
9771;SDS011;4925;52.588;13.370;2022-10-26T07:10:33;12.70;;;7.23;;
9771;SDS011;4925;52.588;13.370;2022-10-26T07:13:09;11.50;;;7.57;;
9771;SDS011;4925;52.588;13.370;2022-10-26T07:15:35;13.07;;;7.77;;
9771;SDS011;4925;52.588;13.370;2022-10-26T07:18:02;16.87;;;8.07;;
9771;SDS011;4925;52.588;13.370;2022-10-26T07:20:35;12.53;;;7.73;;
9771;SDS011;4925;52.588;13.370;2022-10-26T07:23:03;12.90;;;7.70;;
9771;SDS011;4925;52.588;13.370;2022-10-26T07:25:31;18.43;;;9.97;;
9771;SDS011;4925;52.588;13.370;2022-10-26T07:27:57;18.60;;;8.90;;
9771;SDS011;4925;52.588;13.370;2022-10-26T07:30:23;12.77;;;6.83;;
9771;SDS011;4925;52.588;13.370;2022-10-26T07:32:50;11.87;;;7.77;;
9771;SDS011;4925;52.588;13.370;2022-10-26T07:35:22;12.57;;;7.47;;
9771;SDS011;4925;52.588;13.370;2022-10-26T07:37:47;12.47;;;8.07;;
9771;SDS011;4925;52.588;13.370;2022-10-26T07:40:13;17.67;;;7.63;;
9771;SDS011;4925;52.588;13.370;2022-10-26T07:42:38;11.93;;;7.63;;
9771;SDS011;4925;52.588;13.370;2022-10-26T07:45:04;9.93;;;6.93;;
9771;SDS011;4925;52.588;13.370;2022-10-26T07:47:30;11.20;;;7.53;;
9771;SDS011;4925;52.588;13.370;2022-10-26T07:49:55;10.53;;;7.03;;
9771;SDS011;4925;52.588;13.370;2022-10-26T07:52:21;16.97;;;9.53;;
9771;SDS011;4925;52.588;13.370;2022-10-26T07:54:46;10.13;;;7.40;;
9771;SDS011;4925;52.588;13.370;2022-10-26T07:57:12;18.60;;;8.43;;
9771;SDS011;4925;52.588;13.370;2022-10-26T07:59:39;14.17;;;8.50;;
9771;SDS011;4925;52.588;13.370;2022-10-26T08:02:05;16.97;;;9.30;;
9771;SDS011;4925;52.588;13.370;2022-10-26T08:04:33;18.67;;;9.50;;
9771;SDS011;4925;52.588;13.370;2022-10-26T08:06:58;16.03;;;9.27;;
9771;SDS011;4925;52.588;13.370;2022-10-26T08:09:24;13.93;;;9.23;;
9771;SDS011;4925;52.588;13.370;2022-10-26T08:11:49;11.90;;;9.53;;
9771;SDS011;4925;52.588;13.370;2022-10-26T08:14:15;42.23;;;27.47;;
9771;SDS011;4925;52.588;13.370;2022-10-26T08:16:40;92.27;;;52.30;;
9771;SDS011;4925;52.588;13.370;2022-10-26T08:19:06;58.50;;;34.83;;
9771;SDS011;4925;52.588;13.370;2022-10-26T08:21:32;23.17;;;15.23;;
9771;SDS011;4925;52.588;13.370;2022-10-26T08:23:57;13.67;;;9.90;;
9771;SDS011;4925;52.588;13.370;2022-10-26T08:26:23;13.37;;;8.30;;
9771;SDS011;4925;52.588;13.370;2022-10-26T08:28:48;14.73;;;8.60;;
9771;SDS011;4925;52.588;13.370;2022-10-26T08:31:14;12.43;;;8.80;;
9771;SDS011;4925;52.588;13.370;2022-10-26T08:33:40;14.27;;;8.67;;
9771;SDS011;4925;52.588;13.370;2022-10-26T08:36:06;14.40;;;8.40;;
9771;SDS011;4925;52.588;13.370;2022-10-26T08:38:31;13.80;;;9.60;;
9771;SDS011;4925;52.588;13.370;2022-10-26T08:41:05;49.03;;;27.67;;
9771;SDS011;4925;52.588;13.370;2022-10-26T08:43:45;35.37;;;22.27;;
9771;SDS011;4925;52.588;13.370;2022-10-26T08:46:29;32.50;;;20.33;;
9771;SDS011;4925;52.588;13.370;2022-10-26T08:49:03;18.60;;;11.60;;
9771;SDS011;4925;52.588;13.370;2022-10-26T08:51:38;11.43;;;9.43;;
9771;SDS011;4925;52.588;13.370;2022-10-26T08:54:10;10.20;;;9.03;;
9771;SDS011;4925;52.588;13.370;2022-10-26T08:56:44;12.83;;;8.27;;
9771;SDS011;4925;52.588;13.370;2022-10-26T08:59:33;15.27;;;9.10;;
9771;SDS011;4925;52.588;13.370;2022-10-26T09:02:11;13.13;;;8.67;;
9771;SDS011;4925;52.588;13.370;2022-10-26T09:04:39;11.67;;;8.03;;
9771;SDS011;4925;52.588;13.370;2022-10-26T09:10:03;9.50;;;6.53;;
9771;SDS011;4925;52.588;13.370;2022-10-26T09:13:02;7.97;;;5.53;;
9771;SDS011;4925;52.588;13.370;2022-10-26T09:15:56;11.20;;;6.53;;
9771;SDS011;4925;52.588;13.370;2022-10-26T09:18:34;7.07;;;6.23;;
9771;SDS011;4925;52.588;13.370;2022-10-26T09:24:06;8.43;;;5.40;;
9771;SDS011;4925;52.588;13.370;2022-10-26T09:29:46;8.97;;;5.90;;
9771;SDS011;4925;52.588;13.370;2022-10-26T09:32:20;54.20;;;34.23;;
9771;SDS011;4925;52.588;13.370;2022-10-26T09:37:55;12.83;;;6.80;;
9771;SDS011;4925;52.588;13.370;2022-10-26T09:40:47;7.60;;;5.60;;
9771;SDS011;4925;52.588;13.370;2022-10-26T09:46:12;7.67;;;5.43;;
9771;SDS011;4925;52.588;13.370;2022-10-26T09:48:52;8.13;;;5.17;;
9771;SDS011;4925;52.588;13.370;2022-10-26T09:51:23;9.67;;;5.10;;
9771;SDS011;4925;52.588;13.370;2022-10-26T09:53:51;10.07;;;5.23;;
9771;SDS011;4925;52.588;13.370;2022-10-26T09:56:18;7.30;;;5.07;;
9771;SDS011;4925;52.588;13.370;2022-10-26T09:58:49;10.27;;;5.20;;
9771;SDS011;4925;52.588;13.370;2022-10-26T10:06:40;11.53;;;5.10;;
9771;SDS011;4925;52.588;13.370;2022-10-26T10:11:49;6.63;;;4.37;;
9771;SDS011;4925;52.588;13.370;2022-10-26T10:14:27;9.50;;;4.60;;
9771;SDS011;4925;52.588;13.370;2022-10-26T10:17:04;8.10;;;5.20;;
9771;SDS011;4925;52.588;13.370;2022-10-26T10:19:43;11.93;;;4.97;;
9771;SDS011;4925;52.588;13.370;2022-10-26T10:24:59;8.70;;;4.70;;
9771;SDS011;4925;52.588;13.370;2022-10-26T10:27:26;7.13;;;4.57;;
9771;SDS011;4925;52.588;13.370;2022-10-26T10:29:54;8.57;;;4.43;;
9771;SDS011;4925;52.588;13.370;2022-10-26T10:34:55;4.90;;;4.30;;
9771;SDS011;4925;52.588;13.370;2022-10-26T10:37:29;8.13;;;4.90;;
9771;SDS011;4925;52.588;13.370;2022-10-26T10:42:32;6.50;;;4.73;;
9771;SDS011;4925;52.588;13.370;2022-10-26T10:45:01;7.03;;;3.80;;
9771;SDS011;4925;52.588;13.370;2022-10-26T10:47:29;6.23;;;3.87;;
9771;SDS011;4925;52.588;13.370;2022-10-26T10:49:57;9.37;;;4.17;;
9771;SDS011;4925;52.588;13.370;2022-10-26T10:52:31;7.17;;;3.43;;
9771;SDS011;4925;52.588;13.370;2022-10-26T10:55:10;3.83;;;3.07;;
9771;SDS011;4925;52.588;13.370;2022-10-26T10:58:05;7.70;;;3.03;;
9771;SDS011;4925;52.588;13.370;2022-10-26T11:00:59;7.07;;;2.73;;
9771;SDS011;4925;52.588;13.370;2022-10-26T11:03:31;4.90;;;2.17;;
9771;SDS011;4925;52.588;13.370;2022-10-26T11:06:19;37.10;;;23.27;;
9771;SDS011;4925;52.588;13.370;2022-10-26T11:11:33;6.67;;;4.73;;
9771;SDS011;4925;52.588;13.370;2022-10-26T11:14:08;4.40;;;2.93;;
9771;SDS011;4925;52.588;13.370;2022-10-26T11:16:42;5.68;;;2.85;;
9771;SDS011;4925;52.588;13.370;2022-10-26T11:19:19;4.33;;;2.57;;
9771;SDS011;4925;52.588;13.370;2022-10-26T11:21:48;6.83;;;2.87;;
9771;SDS011;4925;52.588;13.370;2022-10-26T11:24:25;9.47;;;3.27;;
9771;SDS011;4925;52.588;13.370;2022-10-26T11:26:57;3.10;;;1.92;;
9771;SDS011;4925;52.588;13.370;2022-10-26T11:32:26;4.25;;;2.33;;
9771;SDS011;4925;52.588;13.370;2022-10-26T11:37:39;4.25;;;1.90;;
9771;SDS011;4925;52.588;13.370;2022-10-26T11:48:52;3.95;;;2.30;;
9771;SDS011;4925;52.588;13.370;2022-10-26T11:54:36;3.65;;;1.90;;
9771;SDS011;4925;52.588;13.370;2022-10-26T11:56:59;3.70;;;2.42;;
9771;SDS011;4925;52.588;13.370;2022-10-26T11:59:28;3.35;;;2.30;;
9771;SDS011;4925;52.588;13.370;2022-10-26T12:01:59;3.10;;;2.50;;
9771;SDS011;4925;52.588;13.370;2022-10-26T12:04:34;2.30;;;2.10;;
9771;SDS011;4925;52.588;13.370;2022-10-26T12:07:03;3.50;;;2.00;;
9771;SDS011;4925;52.588;13.370;2022-10-26T12:09:35;3.92;;;2.00;;
9771;SDS011;4925;52.588;13.370;2022-10-26T12:15:01;5.15;;;2.30;;
9771;SDS011;4925;52.588;13.370;2022-10-26T12:17:52;3.58;;;2.10;;
9771;SDS011;4925;52.588;13.370;2022-10-26T12:23:30;4.25;;;2.03;;
9771;SDS011;4925;52.588;13.370;2022-10-26T12:26:27;4.28;;;2.17;;
9771;SDS011;4925;52.588;13.370;2022-10-26T12:33:56;2.25;;;2.05;;
9771;SDS011;4925;52.588;13.370;2022-10-26T12:41:55;6.95;;;2.03;;
9771;SDS011;4925;52.588;13.370;2022-10-26T12:44:37;2.58;;;1.88;;
9771;SDS011;4925;52.588;13.370;2022-10-26T12:47:05;2.25;;;1.98;;
9771;SDS011;4925;52.588;13.370;2022-10-26T12:52:51;4.03;;;2.20;;
9771;SDS011;4925;52.588;13.370;2022-10-26T13:08:51;1.80;;;1.20;;
9771;SDS011;4925;52.588;13.370;2022-10-26T13:13:53;3.50;;;2.00;;
9771;SDS011;4925;52.588;13.370;2022-10-26T13:16:22;1.60;;;1.50;;
9771;SDS011;4925;52.588;13.370;2022-10-26T13:18:50;3.05;;;1.77;;
9771;SDS011;4925;52.588;13.370;2022-10-26T13:21:17;5.90;;;2.00;;
9771;SDS011;4925;52.588;13.370;2022-10-26T13:26:21;4.88;;;1.83;;
9771;SDS011;4925;52.588;13.370;2022-10-26T13:39:40;4.85;;;2.28;;
9771;SDS011;4925;52.588;13.370;2022-10-26T13:42:11;1.95;;;1.70;;
9771;SDS011;4925;52.588;13.370;2022-10-26T13:44:49;6.43;;;2.20;;
9771;SDS011;4925;52.588;13.370;2022-10-26T13:47:42;2.83;;;2.05;;
9771;SDS011;4925;52.588;13.370;2022-10-26T13:50:15;2.95;;;1.52;;
9771;SDS011;4925;52.588;13.370;2022-10-26T13:52:50;3.15;;;1.80;;
9771;SDS011;4925;52.588;13.370;2022-10-26T13:58:33;3.75;;;1.83;;
9771;SDS011;4925;52.588;13.370;2022-10-26T14:03:27;1.60;;;1.50;;
9771;SDS011;4925;52.588;13.370;2022-10-26T14:05:53;2.72;;;1.27;;
9771;SDS011;4925;52.588;13.370;2022-10-26T14:08:18;7.68;;;1.90;;
9771;SDS011;4925;52.588;13.370;2022-10-26T14:10:46;9.43;;;1.67;;
9771;SDS011;4925;52.588;13.370;2022-10-26T14:13:17;2.22;;;1.23;;
9771;SDS011;4925;52.588;13.370;2022-10-26T14:15:45;1.30;;;1.20;;
9771;SDS011;4925;52.588;13.370;2022-10-26T14:18:18;3.47;;;1.33;;
9771;SDS011;4925;52.588;13.370;2022-10-26T14:23:34;1.35;;;1.10;;
9771;SDS011;4925;52.588;13.370;2022-10-26T14:26:01;2.25;;;1.45;;
9771;SDS011;4925;52.588;13.370;2022-10-26T14:28:29;4.45;;;1.40;;
9771;SDS011;4925;52.588;13.370;2022-10-26T14:31:09;2.33;;;1.17;;
9771;SDS011;4925;52.588;13.370;2022-10-26T14:33:44;2.33;;;1.13;;
9771;SDS011;4925;52.588;13.370;2022-10-26T14:36:10;6.22;;;2.38;;
9771;SDS011;4925;52.588;13.370;2022-10-26T14:38:38;9.43;;;6.13;;
9771;SDS011;4925;52.588;13.370;2022-10-26T14:41:08;5.68;;;4.45;;
9771;SDS011;4925;52.588;13.370;2022-10-26T14:43:35;10.25;;;6.60;;
9771;SDS011;4925;52.588;13.370;2022-10-26T14:46:01;5.22;;;3.45;;
9771;SDS011;4925;52.588;13.370;2022-10-26T14:48:28;3.65;;;3.13;;
9771;SDS011;4925;52.588;13.370;2022-10-26T14:51:37;3.60;;;2.10;;
9771;SDS011;4925;52.588;13.370;2022-10-26T14:53:49;2.28;;;1.63;;
9771;SDS011;4925;52.588;13.370;2022-10-26T14:56:19;2.83;;;1.67;;
9771;SDS011;4925;52.588;13.370;2022-10-26T14:58:50;3.45;;;1.60;;
9771;SDS011;4925;52.588;13.370;2022-10-26T15:01:23;3.58;;;1.15;;
9771;SDS011;4925;52.588;13.370;2022-10-26T15:04:01;3.22;;;1.40;;
9771;SDS011;4925;52.588;13.370;2022-10-26T15:06:32;3.58;;;1.00;;
9771;SDS011;4925;52.588;13.370;2022-10-26T15:09:02;1.70;;;1.52;;
9771;SDS011;4925;52.588;13.370;2022-10-26T15:11:30;2.17;;;1.25;;
9771;SDS011;4925;52.588;13.370;2022-10-26T15:13:58;2.17;;;1.30;;
9771;SDS011;4925;52.588;13.370;2022-10-26T15:16:25;4.93;;;1.50;;
9771;SDS011;4925;52.588;13.370;2022-10-26T15:19:08;3.63;;;1.60;;
9771;SDS011;4925;52.588;13.370;2022-10-26T15:21:36;3.35;;;1.70;;
9771;SDS011;4925;52.588;13.370;2022-10-26T15:24:51;1.67;;;1.30;;
9771;SDS011;4925;52.588;13.370;2022-10-26T15:26:56;2.50;;;1.20;;
9771;SDS011;4925;52.588;13.370;2022-10-26T15:29:32;4.47;;;1.60;;
9771;SDS011;4925;52.588;13.370;2022-10-26T15:32:03;1.40;;;1.30;;
9771;SDS011;4925;52.588;13.370;2022-10-26T15:34:29;4.13;;;2.00;;
9771;SDS011;4925;52.588;13.370;2022-10-26T15:36:55;2.20;;;1.73;;
9771;SDS011;4925;52.588;13.370;2022-10-26T15:39:21;4.50;;;1.90;;
9771;SDS011;4925;52.588;13.370;2022-10-26T15:41:47;4.13;;;2.17;;
9771;SDS011;4925;52.588;13.370;2022-10-26T15:44:14;3.60;;;1.70;;
9771;SDS011;4925;52.588;13.370;2022-10-26T15:46:43;2.23;;;1.60;;
9771;SDS011;4925;52.588;13.370;2022-10-26T15:49:16;4.27;;;1.80;;
9771;SDS011;4925;52.588;13.370;2022-10-26T15:51:45;3.30;;;2.00;;
9771;SDS011;4925;52.588;13.370;2022-10-26T15:54:12;4.57;;;2.00;;
9771;SDS011;4925;52.588;13.370;2022-10-26T15:56:38;4.03;;;1.93;;
9771;SDS011;4925;52.588;13.370;2022-10-26T15:59:08;7.23;;;4.60;;
9771;SDS011;4925;52.588;13.370;2022-10-26T16:01:40;43.73;;;25.60;;
9771;SDS011;4925;52.588;13.370;2022-10-26T16:04:05;13.53;;;8.10;;
9771;SDS011;4925;52.588;13.370;2022-10-26T16:06:33;11.27;;;5.73;;
9771;SDS011;4925;52.588;13.370;2022-10-26T16:09:00;4.30;;;3.73;;
9771;SDS011;4925;52.588;13.370;2022-10-26T16:11:28;4.10;;;2.77;;
9771;SDS011;4925;52.588;13.370;2022-10-26T16:13:54;9.73;;;3.07;;
9771;SDS011;4925;52.588;13.370;2022-10-26T16:16:19;3.63;;;2.80;;
9771;SDS011;4925;52.588;13.370;2022-10-26T16:18:46;5.20;;;2.80;;
9771;SDS011;4925;52.588;13.370;2022-10-26T16:21:14;5.83;;;2.87;;
9771;SDS011;4925;52.588;13.370;2022-10-26T16:23:41;5.33;;;2.73;;
9771;SDS011;4925;52.588;13.370;2022-10-26T16:26:10;16.13;;;3.40;;
9771;SDS011;4925;52.588;13.370;2022-10-26T16:28:36;4.90;;;3.07;;
9771;SDS011;4925;52.588;13.370;2022-10-26T16:31:12;6.07;;;2.30;;
9771;SDS011;4925;52.588;13.370;2022-10-26T16:33:39;4.23;;;2.30;;
9771;SDS011;4925;52.588;13.370;2022-10-26T16:36:06;7.23;;;2.53;;
9771;SDS011;4925;52.588;13.370;2022-10-26T16:38:32;4.63;;;2.93;;
9771;SDS011;4925;52.588;13.370;2022-10-26T16:41:03;6.17;;;3.30;;
9771;SDS011;4925;52.588;13.370;2022-10-26T16:43:31;4.00;;;2.90;;
9771;SDS011;4925;52.588;13.370;2022-10-26T16:45:59;5.80;;;3.10;;
9771;SDS011;4925;52.588;13.370;2022-10-26T16:48:28;5.23;;;3.10;;
9771;SDS011;4925;52.588;13.370;2022-10-26T16:50:57;8.20;;;3.00;;
9771;SDS011;4925;52.588;13.370;2022-10-26T16:53:36;7.13;;;3.17;;
9771;SDS011;4925;52.588;13.370;2022-10-26T16:56:03;6.07;;;3.20;;
9771;SDS011;4925;52.588;13.370;2022-10-26T16:58:30;5.80;;;3.50;;
9771;SDS011;4925;52.588;13.370;2022-10-26T17:00:56;7.47;;;3.77;;
9771;SDS011;4925;52.588;13.370;2022-10-26T17:03:22;11.17;;;4.50;;
9771;SDS011;4925;52.588;13.370;2022-10-26T17:05:53;6.47;;;3.40;;
9771;SDS011;4925;52.588;13.370;2022-10-26T17:08:26;5.50;;;3.10;;
9771;SDS011;4925;52.588;13.370;2022-10-26T17:10:52;5.73;;;3.27;;
9771;SDS011;4925;52.588;13.370;2022-10-26T17:13:19;5.17;;;3.30;;
9771;SDS011;4925;52.588;13.370;2022-10-26T17:15:45;5.37;;;3.00;;
9771;SDS011;4925;52.588;13.370;2022-10-26T17:18:11;7.60;;;3.47;;
9771;SDS011;4925;52.588;13.370;2022-10-26T17:20:38;5.73;;;3.87;;
9771;SDS011;4925;52.588;13.370;2022-10-26T17:23:04;7.63;;;3.93;;
9771;SDS011;4925;52.588;13.370;2022-10-26T17:25:34;7.70;;;3.50;;
9771;SDS011;4925;52.588;13.370;2022-10-26T17:28:00;4.43;;;3.73;;
9771;SDS011;4925;52.588;13.370;2022-10-26T17:30:26;6.67;;;4.37;;
9771;SDS011;4925;52.588;13.370;2022-10-26T17:32:53;11.40;;;4.67;;
9771;SDS011;4925;52.588;13.370;2022-10-26T17:35:18;6.60;;;3.93;;
9771;SDS011;4925;52.588;13.370;2022-10-26T17:37:44;6.17;;;4.17;;
9771;SDS011;4925;52.588;13.370;2022-10-26T17:40:10;4.60;;;3.60;;
9771;SDS011;4925;52.588;13.370;2022-10-26T17:42:35;6.90;;;3.90;;
9771;SDS011;4925;52.588;13.370;2022-10-26T17:45:01;5.80;;;3.33;;
9771;SDS011;4925;52.588;13.370;2022-10-26T17:47:27;7.03;;;4.00;;